Time;durP1;ratioP1;P1;durP2;ratioP2;P2;SDS_P1;SDS_P2;PMS_P1;PMS_P2;Temp;Humidity;BMP_temperature;BMP_pressure;BME280_temperature;BME280_humidity;BME280_pressure;Samples;Min_cycle;Max_cycle;Signal;HPM_P1;HPM_P2
2021/05/07 00:00:53;;;;;;;1.73;0.93;;;9.70;80.90;;;;;;5055320;28;20024;-69
2021/05/07 00:03:18;;;;;;;1.80;1.20;;;9.60;80.90;;;;;;5053330;28;20029;-69
2021/05/07 00:05:51;;;;;;;3.42;1.45;;;9.60;81.40;;;;;;5053907;28;20036;-69
2021/05/07 00:08:17;;;;;;;1.00;0.80;;;9.60;81.20;;;;;;5053093;28;20124;-69
2021/05/07 00:10:43;;;;;;;2.00;1.00;;;9.60;81.60;;;;;;5053794;28;20064;-69
2021/05/07 00:13:08;;;;;;;0.85;0.80;;;9.70;82.50;;;;;;5053740;28;20074;-69
2021/05/07 00:15:34;;;;;;;2.15;1.10;;;9.70;82.00;;;;;;5054458;28;20025;-69
2021/05/07 00:17:59;;;;;;;1.40;0.88;;;9.80;82.20;;;;;;5053628;28;20444;-69
2021/05/07 00:20:25;;;;;;;1.48;1.00;;;9.80;82.20;;;;;;5052673;28;20023;-69
2021/05/07 00:22:50;;;;;;;1.42;0.88;;;9.80;82.20;;;;;;5053558;28;20108;-69
2021/05/07 00:25:16;;;;;;;1.95;1.15;;;9.80;82.40;;;;;;5052666;28;20029;-69
2021/05/07 00:27:42;;;;;;;2.08;1.10;;;9.80;82.70;;;;;;5052652;28;20029;-69
2021/05/07 00:30:08;;;;;;;1.67;1.30;;;9.80;82.60;;;;;;5054735;28;20016;-69
2021/05/07 00:32:34;;;;;;;2.10;1.02;;;9.80;82.40;;;;;;5052717;28;20454;-69
2021/05/07 00:34:59;;;;;;;1.92;1.00;;;9.70;82.60;;;;;;5054590;28;20028;-69
2021/05/07 00:37:25;;;;;;;1.45;0.90;;;9.80;82.80;;;;;;5052686;28;20166;-68
2021/05/07 00:39:50;;;;;;;1.45;1.05;;;9.80;82.60;;;;;;5052782;28;20045;-69
2021/05/07 00:42:18;;;;;;;3.03;1.30;;;9.80;82.60;;;;;;5052672;28;20025;-74
2021/05/07 00:44:43;;;;;;;2.03;1.00;;;9.80;82.80;;;;;;5053150;28;20021;-69
2021/05/07 00:47:09;;;;;;;1.83;0.90;;;9.80;83.10;;;;;;5053050;28;20067;-69
2021/05/07 00:49:36;;;;;;;4.47;0.90;;;9.80;82.80;;;;;;5052504;28;20074;-69
2021/05/07 00:52:04;;;;;;;1.17;0.90;;;9.80;82.90;;;;;;5052739;28;20055;-69
2021/05/07 00:54:30;;;;;;;1.75;1.30;;;9.70;83.20;;;;;;5053989;28;20024;-69
2021/05/07 00:56:56;;;;;;;2.03;1.02;;;9.80;83.30;;;;;;5053121;28;20037;-69
2021/05/07 00:59:21;;;;;;;1.73;1.05;;;9.80;83.40;;;;;;5052290;28;20115;-69
2021/05/07 01:01:48;;;;;;;2.22;1.30;;;9.70;83.80;;;;;;5054151;28;20100;-69
2021/05/07 01:04:14;;;;;;;1.65;1.10;;;9.70;84.10;;;;;;5052886;28;20078;-69
2021/05/07 01:06:40;;;;;;;2.10;1.13;;;9.70;84.30;;;;;;5052093;28;20028;-69
2021/05/07 01:09:06;;;;;;;0.98;0.90;;;9.70;84.70;;;;;;5053676;28;20037;-69
2021/05/07 01:11:32;;;;;;;1.55;1.08;;;9.60;84.80;;;;;;5052061;28;20460;-69
2021/05/07 01:13:58;;;;;;;1.63;1.10;;;9.60;85.00;;;;;;5052609;28;20029;-69
2021/05/07 01:16:24;;;;;;;1.80;1.30;;;9.60;85.10;;;;;;5052028;28;20048;-69
2021/05/07 01:18:49;;;;;;;1.85;1.30;;;9.60;85.20;;;;;;5052420;28;20021;-69
2021/05/07 01:21:15;;;;;;;1.00;0.98;;;9.60;85.40;;;;;;5052466;28;20025;-69
2021/05/07 01:23:41;;;;;;;1.77;1.20;;;9.60;85.50;;;;;;5051836;28;20028;-69
2021/05/07 01:26:07;;;;;;;2.67;1.23;;;9.60;85.60;;;;;;5053653;28;20020;-69
2021/05/07 01:28:34;;;;;;;1.73;1.27;;;9.60;85.50;;;;;;5051649;28;20120;-69
2021/05/07 01:31:00;;;;;;;2.00;1.30;;;9.40;85.50;;;;;;5052517;28;20032;-69
2021/05/07 01:33:26;;;;;;;1.77;1.20;;;9.30;86.50;;;;;;5052919;28;20028;-69
2021/05/07 01:35:53;;;;;;;1.63;1.10;;;9.30;87.00;;;;;;5052222;28;20051;-69
2021/05/07 01:38:19;;;;;;;1.30;1.17;;;9.30;86.60;;;;;;5051555;28;20025;-73
2021/05/07 01:40:48;;;;;;;1.70;1.10;;;9.40;86.30;;;;;;5051664;28;20047;-69
2021/05/07 01:43:14;;;;;;;1.33;1.00;;;9.50;86.00;;;;;;5052147;28;20074;-69
2021/05/07 01:45:42;;;;;;;2.58;1.10;;;9.50;85.60;;;;;;5052403;28;20639;-69
2021/05/07 01:48:08;;;;;;;1.17;0.85;;;9.50;85.70;;;;;;5051901;28;20222;-69
2021/05/07 01:50:36;;;;;;;1.52;1.10;;;9.50;85.90;;;;;;5052623;28;20025;-69
2021/05/07 01:53:03;;;;;;;1.40;1.05;;;9.40;85.80;;;;;;5051814;28;20033;-69
2021/05/07 01:55:31;;;;;;;1.65;1.35;;;9.40;85.90;;;;;;5052560;28;20059;-69
2021/05/07 01:57:58;;;;;;;6.20;1.63;;;9.30;86.20;;;;;;5051797;28;20025;-69
2021/05/07 02:00:26;;;;;;;3.25;1.50;;;9.40;86.30;;;;;;5052446;28;20029;-69
2021/05/07 02:02:53;;;;;;;3.65;1.33;;;9.30;86.00;;;;;;5052989;28;20021;-69
2021/05/07 02:05:20;;;;;;;1.95;1.58;;;9.20;86.40;;;;;;5051643;28;20021;-69
2021/05/07 02:07:49;;;;;;;1.98;1.42;;;9.30;86.10;;;;;;5052032;28;20450;-69
2021/05/07 02:10:23;;;;;;;2.40;1.50;;;9.30;85.90;;;;;;5053109;28;20070;-68
2021/05/07 02:12:53;;;;;;;1.70;1.13;;;9.30;85.60;;;;;;5051699;28;20111;-69
2021/05/07 02:15:20;;;;;;;3.55;1.33;;;9.30;86.00;;;;;;5052539;28;20474;-69
2021/05/07 02:17:46;;;;;;;2.83;1.30;;;9.30;85.80;;;;;;5052474;28;20107;-69
2021/05/07 02:20:14;;;;;;;3.30;1.15;;;9.20;86.50;;;;;;5051458;28;20477;-69
2021/05/07 02:22:40;;;;;;;1.85;1.40;;;9.20;86.60;;;;;;5052110;28;20513;-69
2021/05/07 02:25:07;;;;;;;2.83;1.45;;;9.20;86.60;;;;;;5052685;28;20103;-69
2021/05/07 02:27:32;;;;;;;2.83;1.02;;;9.20;86.50;;;;;;5051911;28;20032;-69
2021/05/07 02:29:58;;;;;;;4.97;1.55;;;9.20;86.60;;;;;;5051327;28;20560;-69
2021/05/07 02:32:24;;;;;;;2.20;1.40;;;9.30;86.60;;;;;;5052021;28;20027;-69
2021/05/07 02:34:49;;;;;;;2.78;1.33;;;9.30;86.60;;;;;;5051344;28;20487;-69
2021/05/07 02:37:15;;;;;;;2.53;1.40;;;9.30;86.70;;;;;;5052570;28;20017;-69
2021/05/07 02:39:44;;;;;;;2.22;1.45;;;9.40;86.30;;;;;;5051994;28;20453;-69
2021/05/07 02:42:10;;;;;;;2.45;1.50;;;9.30;86.50;;;;;;5051250;28;20049;-69
2021/05/07 02:44:35;;;;;;;1.67;1.08;;;9.30;86.10;;;;;;5051997;28;20075;-69
2021/05/07 02:47:04;;;;;;;2.05;1.33;;;9.30;85.90;;;;;;5052349;28;20070;-69
2021/05/07 02:49:31;;;;;;;2.50;1.50;;;9.30;84.60;;;;;;5051749;28;20059;-69
2021/05/07 02:51:57;;;;;;;2.45;1.40;;;9.30;84.30;;;;;;5056593;28;20052;-69
2021/05/07 02:54:22;;;;;;;1.88;1.63;;;9.30;83.80;;;;;;5054963;28;20059;-69
2021/05/07 02:56:48;;;;;;;2.35;1.73;;;9.40;83.80;;;;;;5055894;28;20112;-69
2021/05/07 02:59:15;;;;;;;2.88;1.60;;;9.40;83.50;;;;;;5055179;28;20396;-69
2021/05/07 03:01:41;;;;;;;2.20;1.58;;;9.30;83.50;;;;;;5055834;28;20067;-69
2021/05/07 03:04:07;;;;;;;3.08;1.67;;;9.30;83.70;;;;;;5056308;28;20405;-69
2021/05/07 03:06:32;;;;;;;1.75;1.30;;;9.20;84.40;;;;;;5054029;28;20029;-69
2021/05/07 03:08:58;;;;;;;3.53;1.60;;;9.20;84.50;;;;;;5054362;28;20064;-69
2021/05/07 03:11:23;;;;;;;2.78;1.58;;;9.20;84.80;;;;;;5054933;28;20151;-69
2021/05/07 03:13:49;;;;;;;1.92;1.55;;;9.30;84.40;;;;;;5055293;28;20017;-69
2021/05/07 03:16:15;;;;;;;2.13;1.50;;;9.20;83.90;;;;;;5054571;28;20476;-69
2021/05/07 03:18:40;;;;;;;2.65;1.70;;;9.10;84.30;;;;;;5053666;28;20083;-69
2021/05/07 03:21:06;;;;;;;3.42;1.58;;;9.10;84.00;;;;;;5055934;28;20461;-69
2021/05/07 03:23:32;;;;;;;3.25;1.70;;;9.20;83.70;;;;;;5055099;28;20099;-69
2021/05/07 03:25:58;;;;;;;1.90;1.20;;;9.20;83.90;;;;;;5054514;28;20025;-70
2021/05/07 03:28:23;;;;;;;2.30;1.60;;;9.10;83.90;;;;;;5054475;28;20036;-69
2021/05/07 03:30:49;;;;;;;2.30;1.25;;;9.10;84.00;;;;;;5055186;28;20031;-69
2021/05/07 03:33:15;;;;;;;3.40;1.55;;;9.10;84.20;;;;;;5055641;28;20036;-69
2021/05/07 03:35:40;;;;;;;3.72;1.50;;;9.10;84.20;;;;;;5053848;28;20115;-69
2021/05/07 03:38:06;;;;;;;4.07;1.85;;;9.10;84.00;;;;;;5054266;28;20025;-69
2021/05/07 03:40:32;;;;;;;2.10;1.48;;;9.10;84.30;;;;;;5054501;28;20045;-69
2021/05/07 03:42:58;;;;;;;3.13;1.50;;;9.10;84.20;;;;;;5055575;28;20017;-69
2021/05/07 03:45:24;;;;;;;2.97;1.75;;;9.20;84.00;;;;;;5053925;28;20027;-69
2021/05/07 03:47:50;;;;;;;2.95;1.35;;;9.20;83.20;;;;;;5053503;28;20029;-69
2021/05/07 03:50:15;;;;;;;3.50;1.60;;;9.20;83.10;;;;;;5054118;28;20544;-69
2021/05/07 03:52:41;;;;;;;2.75;1.50;;;9.10;83.00;;;;;;5053297;28;20111;-69
2021/05/07 03:55:09;;;;;;;1.67;1.13;;;9.00;83.70;;;;;;5053771;28;20017;-69
2021/05/07 03:57:35;;;;;;;2.10;1.10;;;9.00;84.10;;;;;;5054477;28;20032;-69
2021/05/07 04:00:01;;;;;;;2.42;1.67;;;9.00;84.70;;;;;;5053626;28;20366;-68
2021/05/07 04:02:26;;;;;;;5.55;1.77;;;9.00;85.10;;;;;;5053899;28;20063;-69
2021/05/07 04:04:54;;;;;;;4.90;1.88;;;9.00;85.50;;;;;;5054790;28;20025;-69
2021/05/07 04:07:20;;;;;;;4.38;2.15;;;9.00;85.30;;;;;;5054987;28;20017;-69
2021/05/07 04:09:51;;;;;;;2.72;1.98;;;9.00;85.00;;;;;;5053208;28;20119;-69
2021/05/07 04:15:07;;;;;;;3.08;1.90;;;9.00;85.60;;;;;;5055157;28;20021;-69
2021/05/07 04:17:35;;;;;;;4.28;2.50;;;9.00;85.60;;;;;;5053001;28;20024;-69
2021/05/07 04:20:01;;;;;;;5.50;3.00;;;9.10;85.70;;;;;;5053296;28;20416;-69
2021/05/07 04:22:27;;;;;;;6.15;2.63;;;9.00;85.40;;;;;;5053656;28;20021;-68
2021/05/07 04:24:53;;;;;;;5.38;2.60;;;9.00;85.10;;;;;;5054266;28;20021;-69
2021/05/07 04:27:18;;;;;;;3.00;2.22;;;9.10;85.10;;;;;;5054692;28;20070;-69
2021/05/07 04:29:44;;;;;;;4.13;2.17;;;9.00;85.40;;;;;;5052886;28;20358;-69
2021/05/07 04:32:10;;;;;;;4.95;2.08;;;8.90;85.60;;;;;;5053432;28;20025;-69
2021/05/07 04:34:35;;;;;;;3.03;1.95;;;8.90;85.30;;;;;;5052905;28;20021;-69
2021/05/07 04:37:01;;;;;;;2.95;2.03;;;8.90;85.20;;;;;;5053315;28;20053;-68
2021/05/07 04:39:27;;;;;;;4.35;1.80;;;9.00;85.00;;;;;;5054521;28;20051;-69
2021/05/07 04:41:53;;;;;;;4.63;2.10;;;9.00;84.70;;;;;;5053680;28;20029;-69
2021/05/07 04:44:18;;;;;;;2.67;1.80;;;8.90;85.50;;;;;;5053168;28;20059;-69
2021/05/07 04:46:44;;;;;;;3.40;2.00;;;8.90;85.20;;;;;;5053859;28;20031;-69
2021/05/07 04:49:09;;;;;;;4.13;2.17;;;8.90;85.40;;;;;;5053160;28;20029;-69
2021/05/07 04:51:35;;;;;;;2.80;1.67;;;8.90;85.60;;;;;;5053743;28;20044;-69
2021/05/07 04:54:02;;;;;;;3.22;1.92;;;8.90;85.80;;;;;;5054403;28;20024;-69
2021/05/07 04:56:28;;;;;;;3.88;1.70;;;8.90;86.00;;;;;;5054271;28;20108;-69
2021/05/07 04:58:53;;;;;;;3.22;1.95;;;9.00;86.30;;;;;;5053588;28;20503;-69
2021/05/07 05:01:19;;;;;;;2.83;2.05;;;9.00;86.70;;;;;;5054169;28;20468;-69
2021/05/07 05:03:44;;;;;;;3.50;2.53;;;8.90;86.40;;;;;;5052239;28;20021;-69
2021/05/07 05:06:10;;;;;;;3.33;2.17;;;9.00;86.40;;;;;;5053836;28;20017;-69
2021/05/07 05:08:36;;;;;;;3.90;1.90;;;8.90;86.60;;;;;;5052829;28;20127;-69
2021/05/07 05:11:02;;;;;;;3.00;2.10;;;8.90;86.50;;;;;;5052328;28;20025;-69
2021/05/07 05:13:28;;;;;;;2.75;2.03;;;8.80;87.10;;;;;;5052096;28;20025;-69
2021/05/07 05:15:55;;;;;;;5.22;2.03;;;8.90;86.40;;;;;;5053034;28;20070;-69
2021/05/07 05:18:31;;;;;;;2.90;1.92;;;8.90;86.50;;;;;;5052515;28;20024;-69
2021/05/07 05:21:01;;;;;;;3.42;2.05;;;8.80;87.40;;;;;;5051597;28;20024;-69
2021/05/07 05:23:28;;;;;;;3.67;1.98;;;8.80;88.40;;;;;;5054051;28;20162;-69
2021/05/07 05:25:54;;;;;;;2.78;2.17;;;8.80;87.50;;;;;;5052841;28;20025;-69
2021/05/07 05:28:20;;;;;;;5.30;2.20;;;8.80;87.20;;;;;;5053189;28;20469;-69
2021/05/07 05:30:46;;;;;;;3.65;2.53;;;8.80;86.90;;;;;;5052988;28;20028;-69
2021/05/07 05:33:12;;;;;;;6.50;2.55;;;8.80;86.80;;;;;;5053386;28;20021;-69
2021/05/07 05:35:38;;;;;;;4.32;2.50;;;8.80;86.70;;;;;;5052835;28;20036;-69
2021/05/07 05:38:04;;;;;;;4.90;2.60;;;8.90;86.20;;;;;;5053057;28;20470;-69
2021/05/07 05:40:30;;;;;;;3.63;2.42;;;8.90;85.40;;;;;;5053403;28;20049;-68
2021/05/07 05:42:56;;;;;;;5.35;3.00;;;9.00;84.40;;;;;;5052439;28;20021;-69
2021/05/07 05:45:24;;;;;;;3.78;2.38;;;9.00;84.80;;;;;;5053297;28;20457;-68
2021/05/07 05:48:03;;;;;;;5.95;2.63;;;9.00;83.60;;;;;;5052613;28;20035;-69
2021/05/07 05:50:29;;;;;;;5.60;2.28;;;9.00;84.00;;;;;;5053237;28;20035;-69
2021/05/07 05:52:54;;;;;;;4.07;2.50;;;9.00;84.50;;;;;;5052553;28;20107;-68
2021/05/07 05:55:21;;;;;;;10.10;4.78;;;9.10;84.80;;;;;;5051827;28;20056;-68
2021/05/07 05:57:46;;;;;;;4.80;3.72;;;9.00;85.60;;;;;;5052498;28;20021;-69
2021/05/07 06:00:13;;;;;;;4.95;2.72;;;9.00;85.90;;;;;;5053145;28;20066;-69
2021/05/07 06:02:39;;;;;;;8.65;5.65;;;8.90;85.80;;;;;;5052312;28;20032;-69
2021/05/07 06:05:10;;;;;;;7.25;4.03;;;9.00;85.00;;;;;;5052959;28;20029;-69
2021/05/07 06:07:36;;;;;;;5.72;3.05;;;9.10;85.10;;;;;;5051022;28;20037;-73
2021/05/07 06:10:02;;;;;;;7.78;4.85;;;9.10;84.50;;;;;;5051176;28;20056;-69
2021/05/07 06:12:28;;;;;;;9.55;5.20;;;9.20;84.50;;;;;;5053071;28;20052;-69
2021/05/07 06:14:53;;;;;;;13.27;7.47;;;9.30;83.90;;;;;;5052236;28;20025;-69
2021/05/07 06:17:19;;;;;;;6.85;4.13;;;9.30;82.60;;;;;;5051538;28;20025;-69
2021/05/07 06:19:45;;;;;;;3.30;2.60;;;9.30;81.50;;;;;;5050843;28;20029;-69
2021/05/07 06:22:10;;;;;;;6.53;3.17;;;9.30;80.40;;;;;;5051768;28;20079;-69
2021/05/07 06:24:36;;;;;;;4.78;2.90;;;9.40;80.10;;;;;;5051684;28;20087;-73
2021/05/07 06:27:01;;;;;;;5.45;2.97;;;9.40;79.50;;;;;;5052752;28;20025;-69
2021/05/07 06:29:27;;;;;;;4.78;2.45;;;9.40;78.40;;;;;;5051314;28;20032;-69
2021/05/07 06:31:53;;;;;;;3.95;2.60;;;9.40;76.80;;;;;;5052000;28;20031;-69
2021/05/07 06:34:19;;;;;;;4.30;2.67;;;9.40;77.10;;;;;;5051450;28;20115;-69
2021/05/07 06:36:44;;;;;;;5.05;2.42;;;9.50;77.20;;;;;;5050763;28;20397;-69
2021/05/07 06:39:10;;;;;;;3.65;2.10;;;9.50;76.50;;;;;;5052233;28;20533;-69
2021/05/07 06:41:36;;;;;;;4.10;2.03;;;9.50;73.40;;;;;;5052261;28;20508;-69
2021/05/07 06:44:01;;;;;;;4.22;2.17;;;9.40;69.70;;;;;;5051873;28;20481;-69
2021/05/07 06:46:27;;;;;;;5.30;2.40;;;9.40;71.00;;;;;;5051161;28;20021;-69
2021/05/07 06:48:52;;;;;;;4.80;2.08;;;9.40;69.60;;;;;;5051465;28;20033;-69
2021/05/07 06:51:18;;;;;;;3.33;1.85;;;9.50;70.40;;;;;;5052402;28;20028;-69
2021/05/07 06:53:44;;;;;;;3.30;1.83;;;9.50;70.00;;;;;;5050627;28;20017;-69
2021/05/07 06:56:10;;;;;;;3.70;2.13;;;9.50;68.50;;;;;;5051062;28;20049;-69
2021/05/07 06:58:37;;;;;;;4.40;2.80;;;9.50;69.00;;;;;;5052020;28;20025;-69
2021/05/07 07:01:03;;;;;;;4.40;2.50;;;9.50;69.50;;;;;;5050435;28;20021;-69
2021/05/07 07:03:29;;;;;;;4.32;2.60;;;9.50;69.60;;;;;;5051002;28;20493;-69
2021/05/07 07:05:54;;;;;;;3.88;2.45;;;9.60;68.00;;;;;;5051717;28;20075;-69
2021/05/07 07:08:20;;;;;;;5.03;2.78;;;9.70;67.90;;;;;;5050801;28;20131;-69
2021/05/07 07:10:45;;;;;;;4.55;2.53;;;9.70;68.70;;;;;;5051671;28;20108;-69
2021/05/07 07:13:11;;;;;;;7.97;3.53;;;9.80;69.90;;;;;;5051943;28;20100;-69
2021/05/07 07:15:37;;;;;;;4.90;2.75;;;9.80;69.60;;;;;;5052475;28;20454;-69
2021/05/07 07:18:03;;;;;;;4.50;2.80;;;9.70;69.60;;;;;;5051569;28;20033;-69
2021/05/07 07:20:30;;;;;;;4.30;2.80;;;9.80;70.10;;;;;;5052115;28;20103;-69
2021/05/07 07:22:59;;;;;;;5.50;3.15;;;9.90;70.40;;;;;;5050271;28;20381;-69
2021/05/07 07:25:25;;;;;;;8.00;4.50;;;10.00;69.10;;;;;;5052114;28;20074;-68
2021/05/07 07:27:50;;;;;;;5.25;3.33;;;9.90;68.80;;;;;;5050071;28;20058;-69
2021/05/07 07:30:16;;;;;;;4.53;2.88;;;9.80;69.30;;;;;;5051594;28;20030;-69
2021/05/07 07:32:42;;;;;;;4.80;2.88;;;9.80;68.20;;;;;;5051470;28;20021;-69
2021/05/07 07:35:09;;;;;;;6.97;3.20;;;9.60;67.40;;;;;;5051106;28;20032;-69
2021/05/07 07:37:35;;;;;;;5.30;2.80;;;9.50;66.80;;;;;;5055785;28;20029;-69
2021/05/07 07:40:01;;;;;;;3.60;2.50;;;9.40;66.50;;;;;;5054884;28;20056;-69
2021/05/07 07:42:26;;;;;;;4.18;2.90;;;9.40;66.20;;;;;;5054414;28;20366;-69
2021/05/07 07:44:52;;;;;;;5.22;2.70;;;9.40;66.80;;;;;;5054714;28;20151;-69
2021/05/07 07:47:18;;;;;;;5.13;3.53;;;9.50;65.90;;;;;;5054195;28;20032;-68
2021/05/07 07:49:43;;;;;;;5.18;3.33;;;9.50;65.20;;;;;;5054894;28;20151;-69
2021/05/07 07:52:09;;;;;;;6.47;3.20;;;9.50;65.20;;;;;;5053889;28;20032;-69
2021/05/07 07:54:35;;;;;;;5.30;3.15;;;9.50;64.60;;;;;;5054168;28;20107;-69
2021/05/07 07:57:00;;;;;;;4.55;2.60;;;9.60;64.00;;;;;;5054777;28;20147;-69
2021/05/07 07:59:26;;;;;;;4.88;3.05;;;9.60;64.70;;;;;;5054076;28;20454;-68
2021/05/07 08:01:52;;;;;;;3.95;2.83;;;9.60;63.60;;;;;;5054967;28;20021;-69
2021/05/07 08:04:20;;;;;;;4.15;2.53;;;9.70;65.00;;;;;;5055276;28;20048;-69
2021/05/07 08:06:46;;;;;;;4.20;2.67;;;9.70;61.80;;;;;;5054563;28;20028;-69
2021/05/07 08:09:12;;;;;;;6.05;2.88;;;9.60;62.80;;;;;;5055168;28;20115;-69
2021/05/07 08:11:38;;;;;;;3.80;2.30;;;9.60;61.70;;;;;;5055398;28;20033;-69
2021/05/07 08:14:04;;;;;;;3.90;2.45;;;9.60;61.50;;;;;;5053218;28;20472;-69
2021/05/07 08:16:29;;;;;;;5.22;2.40;;;9.60;61.80;;;;;;5054986;28;20017;-69
2021/05/07 08:18:55;;;;;;;3.30;2.08;;;9.60;61.70;;;;;;5053134;28;20031;-69
2021/05/07 08:21:24;;;;;;;3.58;2.47;;;9.60;61.90;;;;;;5054909;28;20024;-69
2021/05/07 08:23:50;;;;;;;3.22;2.25;;;9.60;61.00;;;;;;5054311;28;20021;-69
2021/05/07 08:26:16;;;;;;;3.28;2.22;;;9.60;61.90;;;;;;5055123;28;20025;-69
2021/05/07 08:28:41;;;;;;;3.17;2.10;;;9.60;57.50;;;;;;5054785;28;20446;-68
2021/05/07 08:31:07;;;;;;;3.30;1.98;;;9.60;58.10;;;;;;5054484;28;20017;-69
2021/05/07 08:33:33;;;;;;;4.07;1.83;;;9.70;56.70;;;;;;5054752;28;20028;-69
2021/05/07 08:35:58;;;;;;;4.88;2.00;;;9.70;56.70;;;;;;5052819;28;20029;-69
2021/05/07 08:38:24;;;;;;;2.58;1.90;;;9.80;54.80;;;;;;5054474;28;20025;-69
2021/05/07 08:40:49;;;;;;;4.80;2.38;;;9.90;55.50;;;;;;5052186;28;20508;-69
2021/05/07 08:43:16;;;;;;;3.63;2.13;;;10.10;56.00;;;;;;5054539;28;20057;-69
2021/05/07 08:45:42;;;;;;;4.43;2.10;;;10.20;56.80;;;;;;5053187;28;20021;-69
2021/05/07 08:48:11;;;;;;;6.07;2.45;;;10.30;57.00;;;;;;5051560;28;20029;-69
2021/05/07 08:50:36;;;;;;;3.45;1.95;;;10.20;57.90;;;;;;5053150;28;20021;-69
2021/05/07 08:53:03;;;;;;;4.43;2.03;;;10.20;54.80;;;;;;5053746;28;20032;-69
2021/05/07 08:55:28;;;;;;;3.75;1.90;;;10.10;56.30;;;;;;5053846;28;20051;-69
2021/05/07 08:57:54;;;;;;;4.65;2.25;;;10.20;57.10;;;;;;5052420;28;20028;-69
2021/05/07 09:00:21;;;;;;;4.93;2.25;;;10.20;57.20;;;;;;5053918;28;20025;-69
2021/05/07 09:02:47;;;;;;;4.13;2.00;;;10.20;54.10;;;;;;5053568;28;20126;-69
2021/05/07 09:05:13;;;;;;;2.55;2.00;;;10.30;53.60;;;;;;5053625;28;20507;-69
2021/05/07 09:07:39;;;;;;;3.72;1.92;;;10.30;54.10;;;;;;5053882;28;20059;-69
2021/05/07 09:10:06;;;;;;;2.97;1.70;;;10.30;53.90;;;;;;5053056;28;20473;-69
2021/05/07 09:12:36;;;;;;;3.30;1.95;;;10.40;52.30;;;;;;5053913;28;20454;-69
2021/05/07 09:15:05;;;;;;;3.40;1.90;;;10.50;50.00;;;;;;5053310;28;20013;-69
2021/05/07 09:17:33;;;;;;;3.03;1.58;;;10.60;49.60;;;;;;5052595;28;20116;-69
2021/05/07 09:20:11;;;;;;;2.92;2.00;;;10.50;51.20;;;;;;5051900;28;20031;-69
2021/05/07 09:22:38;;;;;;;4.03;1.90;;;10.50;52.10;;;;;;5053810;28;20013;-69
2021/05/07 09:25:10;;;;;;;3.65;2.00;;;10.60;50.40;;;;;;5051911;28;20377;-69
2021/05/07 09:27:36;;;;;;;2.78;1.65;;;10.80;49.60;;;;;;5053698;28;20029;-69
2021/05/07 09:30:06;;;;;;;2.88;1.80;;;10.90;47.40;;;;;;5053005;28;20024;-69
2021/05/07 09:32:34;;;;;;;5.85;1.77;;;10.90;48.60;;;;;;5053254;28;20052;-69
2021/05/07 09:35:07;;;;;;;3.20;2.20;;;10.90;46.70;;;;;;5051667;28;20465;-68
2021/05/07 09:37:33;;;;;;;2.65;1.90;;;11.00;47.20;;;;;;5053457;28;20092;-68
2021/05/07 09:40:18;;;;;;;3.97;1.88;;;11.10;45.50;;;;;;5052892;28;20604;-69
2021/05/07 09:42:46;;;;;;;2.90;1.90;;;11.20;46.30;;;;;;5053498;28;20047;-69
2021/05/07 09:45:32;;;;;;;5.07;1.60;;;11.30;47.30;;;;;;5052726;28;20025;-69
2021/05/07 09:47:57;;;;;;;3.25;2.03;;;11.40;46.70;;;;;;5051994;28;20116;-69
2021/05/07 09:50:39;;;;;;;2.63;2.08;;;11.40;47.10;;;;;;5052028;28;20120;-69
2021/05/07 09:53:17;;;;;;;2.97;1.60;;;11.50;46.30;;;;;;5052708;28;20148;-69
2021/05/07 09:55:44;;;;;;;2.67;1.77;;;11.50;45.20;;;;;;5053232;28;20032;-69
2021/05/07 09:58:13;;;;;;;2.88;1.90;;;11.50;45.90;;;;;;5050753;28;20036;-69
2021/05/07 10:00:39;;;;;;;4.00;2.10;;;11.50;46.70;;;;;;5051683;28;20335;-69
2021/05/07 10:03:05;;;;;;;3.10;2.08;;;11.40;48.00;;;;;;5052440;28;20021;-69
2021/05/07 10:05:31;;;;;;;2.35;1.67;;;11.40;48.60;;;;;;5051797;28;20021;-69
2021/05/07 10:08:00;;;;;;;3.30;1.85;;;11.40;49.00;;;;;;5051933;28;20075;-70
2021/05/07 10:10:31;;;;;;;5.25;2.15;;;11.60;48.90;;;;;;5052891;28;20025;-69
2021/05/07 10:13:00;;;;;;;3.92;1.92;;;11.70;47.70;;;;;;5052422;28;20013;-69
2021/05/07 10:15:31;;;;;;;3.45;1.95;;;11.80;47.10;;;;;;5051698;28;20025;-69
2021/05/07 10:17:58;;;;;;;3.17;1.93;;;11.80;45.70;;;;;;5052317;28;20025;-69
2021/05/07 10:20:41;;;;;;;4.65;2.17;;;11.90;46.40;;;;;;5051517;28;20261;-69
2021/05/07 10:23:33;;;;;;;3.17;1.98;;;11.90;45.30;;;;;;5051036;28;20032;-69
2021/05/07 10:26:09;;;;;;;2.72;1.92;;;11.80;45.20;;;;;;5047031;28;20111;-69
2021/05/07 10:28:49;;;;;;;3.63;2.03;;;12.00;46.30;;;;;;5052666;28;20082;-69
2021/05/07 10:31:16;;;;;;;3.40;2.08;;;12.00;45.90;;;;;;5050879;28;20021;-69
2021/05/07 10:33:58;;;;;;;3.47;1.95;;;11.90;43.80;;;;;;5051325;28;20111;-69
2021/05/07 10:36:38;;;;;;;4.53;1.70;;;11.80;43.30;;;;;;5051273;28;20021;-69
2021/05/07 10:39:14;;;;;;;4.18;1.55;;;11.80;43.70;;;;;;5051663;28;20041;-69
2021/05/07 10:41:40;;;;;;;3.47;2.20;;;11.90;44.90;;;;;;5051261;28;20082;-69
2021/05/07 10:44:05;;;;;;;3.42;1.75;;;11.90;43.10;;;;;;5050594;28;20025;-69
2021/05/07 10:46:31;;;;;;;3.40;1.80;;;11.80;43.60;;;;;;5052438;28;20103;-69
2021/05/07 10:48:59;;;;;;;3.05;1.83;;;11.70;44.30;;;;;;5050549;28;20342;-69
2021/05/07 10:51:27;;;;;;;3.72;1.80;;;11.60;44.70;;;;;;5051148;28;20056;-69
2021/05/07 10:54:04;;;;;;;2.45;1.70;;;11.60;44.90;;;;;;5050526;28;20519;-72
2021/05/07 10:56:37;;;;;;;2.30;1.60;;;11.60;45.80;;;;;;5051343;28;20025;-69
2021/05/07 10:59:23;;;;;;;3.00;1.90;;;11.60;44.90;;;;;;5051826;28;20151;-69
2021/05/07 11:02:01;;;;;;;3.03;1.80;;;11.70;45.10;;;;;;5050655;28;20029;-69
2021/05/07 11:04:27;;;;;;;2.92;1.88;;;11.70;44.20;;;;;;5051017;28;20022;-69
2021/05/07 11:07:01;;;;;;;3.75;2.10;;;11.80;44.50;;;;;;5050653;28;20111;-73
2021/05/07 11:09:27;;;;;;;3.28;1.58;;;12.20;43.60;;;;;;5051935;28;20120;-69
2021/05/07 11:11:57;;;;;;;3.63;1.95;;;12.40;43.80;;;;;;5055329;28;20025;-73
2021/05/07 11:14:25;;;;;;;6.72;1.48;;;12.40;42.70;;;;;;5054859;28;20046;-69
2021/05/07 11:16:51;;;;;;;3.78;2.05;;;12.30;45.20;;;;;;5056085;28;20017;-69
2021/05/07 11:19:33;;;;;;;4.05;1.83;;;12.20;43.90;;;;;;5055515;28;20029;-69
2021/05/07 11:22:08;;;;;;;3.92;1.60;;;12.10;44.20;;;;;;5054231;28;20205;-69
2021/05/07 11:24:39;;;;;;;2.60;1.80;;;12.00;46.40;;;;;;5054471;28;20078;-69
2021/05/07 11:27:23;;;;;;;3.65;2.05;;;11.80;50.50;;;;;;5055719;28;20139;-69
2021/05/07 11:30:04;;;;;;;3.25;1.90;;;11.90;51.00;;;;;;5054618;28;20087;-69
2021/05/07 11:32:30;;;;;;;2.58;1.70;;;12.00;51.20;;;;;;5054756;28;20090;-69
2021/05/07 11:34:56;;;;;;;3.13;1.70;;;11.80;50.60;;;;;;5070695;28;20056;-69
2021/05/07 11:37:23;;;;;;;3.05;1.88;;;11.80;51.50;;;;;;5055770;28;20021;-68
2021/05/07 11:40:01;;;;;;;2.60;1.83;;;11.70;51.80;;;;;;5055639;28;20045;-69
2021/05/07 11:42:35;;;;;;;4.30;2.05;;;11.70;53.00;;;;;;5054392;28;20032;-69
2021/05/07 11:45:04;;;;;;;3.78;1.77;;;11.50;54.70;;;;;;5054991;28;20048;-69
2021/05/07 11:47:31;;;;;;;3.55;1.80;;;11.40;56.10;;;;;;5055497;28;20021;-68
2021/05/07 11:49:57;;;;;;;2.22;1.67;;;11.40;52.60;;;;;;5053711;28;20021;-69
2021/05/07 11:52:43;;;;;;;3.70;1.90;;;11.40;51.70;;;;;;5053919;28;20027;-69
2021/05/07 11:55:11;;;;;;;2.28;1.65;;;11.40;51.60;;;;;;5053617;28;20021;-69
2021/05/07 11:57:37;;;;;;;3.22;1.60;;;11.60;51.70;;;;;;5054180;28;20035;-69
2021/05/07 12:00:07;;;;;;;1.83;1.40;;;11.80;51.20;;;;;;5053555;28;20446;-69
2021/05/07 12:02:32;;;;;;;2.22;1.40;;;12.10;50.50;;;;;;5055618;28;20028;-69
2021/05/07 12:04:59;;;;;;;1.88;1.35;;;12.50;50.10;;;;;;5054761;28;20362;-69
2021/05/07 12:07:28;;;;;;;2.80;1.20;;;12.50;48.70;;;;;;5053907;28;20032;-69
2021/05/07 12:09:56;;;;;;;1.15;1.00;;;12.70;49.40;;;;;;5055394;28;20028;-69
2021/05/07 12:12:23;;;;;;;3.78;1.27;;;12.70;49.90;;;;;;5053825;28;20120;-69
2021/05/07 12:14:49;;;;;;;1.88;1.00;;;12.50;49.60;;;;;;5053971;28;20052;-69
2021/05/07 12:17:21;;;;;;;1.38;0.82;;;12.30;51.00;;;;;;5054500;28;20021;-68
2021/05/07 12:20:21;;;;;;;1.48;1.00;;;12.10;54.10;;;;;;5054008;28;20074;-69
2021/05/07 12:22:52;;;;;;;2.28;0.90;;;11.90;57.40;;;;;;5042293;28;20109;-69
2021/05/07 12:25:23;;;;;;;2.08;1.05;;;11.70;57.10;;;;;;5054351;28;20053;-69
2021/05/07 12:27:51;;;;;;;3.97;1.08;;;11.60;55.70;;;;;;5054883;28;20041;-69
2021/05/07 12:30:33;;;;;;;2.08;0.80;;;11.60;57.20;;;;;;5052962;28;20112;-69
2021/05/07 12:33:00;;;;;;;1.67;0.63;;;11.70;56.70;;;;;;5052934;28;20017;-70
2021/05/07 12:35:53;;;;;;;2.97;1.10;;;12.00;56.10;;;;;;5053122;28;20025;-69
2021/05/07 12:38:30;;;;;;;2.85;0.90;;;12.30;57.70;;;;;;5052662;28;20359;-69
2021/05/07 12:41:07;;;;;;;2.08;1.00;;;12.60;59.50;;;;;;5054206;28;20041;-69
2021/05/07 12:43:35;;;;;;;1.67;0.90;;;12.80;56.80;;;;;;5053376;28;20027;-69
2021/05/07 12:46:01;;;;;;;2.33;1.20;;;13.10;55.90;;;;;;5052719;28;20017;-69
2021/05/07 12:48:27;;;;;;;1.73;0.90;;;13.20;53.90;;;;;;5052784;28;20029;-69
2021/05/07 12:50:53;;;;;;;1.17;0.82;;;13.10;53.40;;;;;;5053117;28;20021;-69
2021/05/07 12:53:23;;;;;;;3.30;1.15;;;13.30;51.40;;;;;;5052490;28;20028;-69
2021/05/07 12:55:50;;;;;;;0.63;0.60;;;13.40;52.10;;;;;;5053229;28;20029;-69
2021/05/07 12:58:17;;;;;;;1.83;0.82;;;13.50;52.90;;;;;;5053688;28;20052;-69